createdAt,value
2022-11-17T00:00:46.919Z,7.65
2022-11-17T00:03:17.000Z,7.22
2022-11-17T00:05:44.835Z,7.65
2022-11-17T00:08:12.513Z,9.60
2022-11-17T00:10:42.005Z,6.20
2022-11-17T00:13:10.788Z,6.45
2022-11-17T00:15:43.657Z,9.10
2022-11-17T00:18:11.107Z,8.10
2022-11-17T00:20:41.249Z,6.47
2022-11-17T00:23:08.682Z,6.65
2022-11-17T00:25:35.813Z,7.43
2022-11-17T00:28:03.150Z,7.18
2022-11-17T00:30:30.335Z,6.38
2022-11-17T00:33:04.134Z,6.07
2022-11-17T00:35:31.256Z,6.75
2022-11-17T00:37:58.675Z,8.30
2022-11-17T00:40:28.237Z,6.28
2022-11-17T00:42:55.736Z,5.82
2022-11-17T00:45:22.924Z,8.25
2022-11-17T00:47:50.378Z,7.07
2022-11-17T00:50:20.009Z,7.57
2022-11-17T00:52:47.367Z,6.18
2022-11-17T00:55:14.498Z,8.20
2022-11-17T00:57:42.076Z,8.27
2022-11-17T01:00:09.643Z,8.52
2022-11-17T01:02:36.938Z,6.93
2022-11-17T01:05:04.472Z,5.22
2022-11-17T01:07:31.884Z,6.22
2022-11-17T01:09:58.926Z,6.70
2022-11-17T01:12:26.502Z,6.75
2022-11-17T01:14:53.453Z,7.70
2022-11-17T01:17:20.754Z,5.72
2022-11-17T01:19:49.369Z,6.88
2022-11-17T01:22:16.755Z,6.65
2022-11-17T01:24:43.985Z,6.85
2022-11-17T01:27:11.538Z,6.80
2022-11-17T01:29:38.598Z,5.80
2022-11-17T01:32:05.906Z,6.65
2022-11-17T01:34:33.082Z,6.18
2022-11-17T01:37:00.409Z,5.95
2022-11-17T01:39:31.704Z,6.53
2022-11-17T01:42:04.542Z,6.95
2022-11-17T01:45:00.572Z,4.82
2022-11-17T01:47:40.292Z,4.32
2022-11-17T01:50:18.476Z,4.38
2022-11-17T01:52:48.997Z,5.60
2022-11-17T01:55:19.502Z,6.97
2022-11-17T01:58:17.373Z,5.22
2022-11-17T02:00:44.702Z,3.55
2022-11-17T02:03:12.942Z,4.25
2022-11-17T02:05:50.269Z,3.85
2022-11-17T02:08:20.715Z,5.65
2022-11-17T02:10:51.844Z,4.65
2022-11-17T02:13:21.940Z,5.40
2022-11-17T02:15:49.006Z,8.82
2022-11-17T02:18:19.479Z,8.18
2022-11-17T02:21:07.489Z,7.97
2022-11-17T02:23:52.698Z,7.97
2022-11-17T02:26:46.975Z,9.55
2022-11-17T02:29:17.262Z,9.88
2022-11-17T02:32:06.058Z,8.45
2022-11-17T02:35:00.443Z,8.75
2022-11-17T02:37:38.992Z,7.15
2022-11-17T02:40:18.045Z,8.38
2022-11-17T02:42:58.148Z,7.00
2022-11-17T02:45:33.958Z,6.53
2022-11-17T02:48:06.657Z,5.53
2022-11-17T02:50:34.881Z,3.92
2022-11-17T02:53:03.057Z,3.97
2022-11-17T02:55:34.800Z,4.15
2022-11-17T02:58:09.061Z,5.80
2022-11-17T03:03:40.858Z,4.78
2022-11-17T03:07:00.023Z,6.13
2022-11-17T03:09:49.404Z,6.15
2022-11-17T03:12:30.404Z,7.40
2022-11-17T03:15:25.898Z,6.35
2022-11-17T03:18:18.555Z,5.15
2022-11-17T03:21:03.654Z,7.10
2022-11-17T03:23:40.694Z,5.40
2022-11-17T03:26:12.452Z,5.55
2022-11-17T03:28:45.229Z,4.45
2022-11-17T03:31:16.642Z,5.68
2022-11-17T03:33:47.416Z,7.90
2022-11-17T03:36:18.401Z,6.65
2022-11-17T03:39:12.593Z,6.82
2022-11-17T03:41:47.170Z,5.35
2022-11-17T03:44:19.357Z,9.13
2022-11-17T03:46:48.665Z,8.77
2022-11-17T03:49:56.668Z,12.73
2022-11-17T03:52:27.018Z,6.88
2022-11-17T03:54:54.578Z,6.40
2022-11-17T03:57:47.779Z,7.07
2022-11-17T04:00:19.633Z,10.63
2022-11-17T04:02:49.368Z,6.60
2022-11-17T04:05:17.768Z,6.80
2022-11-17T04:07:46.828Z,9.90
2022-11-17T04:10:16.424Z,12.07
2022-11-17T04:12:43.775Z,12.35
2022-11-17T04:15:12.129Z,11.80
2022-11-17T04:17:39.315Z,10.07
2022-11-17T04:20:07.788Z,10.52
2022-11-17T04:22:34.773Z,10.50
2022-11-17T04:25:02.010Z,11.98
2022-11-17T04:27:29.454Z,12.65
2022-11-17T04:29:56.702Z,12.05
2022-11-17T04:32:23.709Z,12.23
2022-11-17T04:34:53.360Z,11.82
2022-11-17T04:37:20.322Z,10.90
2022-11-17T04:39:47.566Z,11.52
2022-11-17T04:42:17.225Z,11.20
2022-11-17T04:44:44.448Z,12.10
2022-11-17T04:47:11.455Z,11.10
2022-11-17T04:49:41.323Z,10.60
2022-11-17T04:52:10.586Z,13.93
2022-11-17T04:54:37.874Z,13.15
2022-11-17T04:57:05.310Z,12.00
2022-11-17T04:59:32.607Z,10.70
2022-11-17T05:02:05.290Z,11.48
2022-11-17T05:04:33.766Z,12.23
2022-11-17T05:07:00.820Z,15.98
2022-11-17T05:09:28.166Z,14.95
2022-11-17T05:11:57.829Z,11.30
2022-11-17T05:14:26.902Z,15.80
2022-11-17T05:16:54.433Z,12.02
2022-11-17T05:19:27.445Z,13.40
2022-11-17T05:21:57.209Z,11.85
2022-11-17T05:24:27.370Z,11.40
2022-11-17T05:26:55.060Z,14.85
2022-11-17T05:29:23.433Z,13.38
2022-11-17T05:31:52.719Z,12.52
2022-11-17T05:34:22.470Z,14.25
2022-11-17T05:36:51.911Z,12.25
2022-11-17T05:39:19.488Z,10.40
2022-11-17T05:41:46.490Z,13.27
2022-11-17T05:44:16.245Z,13.15
2022-11-17T05:46:43.362Z,15.23
2022-11-17T05:49:13.180Z,14.40
2022-11-17T05:51:40.143Z,15.38
2022-11-17T05:54:07.687Z,18.20
2022-11-17T05:56:44.041Z,14.75
2022-11-17T05:59:54.610Z,15.55
2022-11-17T06:02:53.851Z,12.65
2022-11-17T06:05:23.989Z,13.80
2022-11-17T06:07:52.557Z,13.25
2022-11-17T06:10:19.708Z,12.93
2022-11-17T06:12:47.724Z,15.60
2022-11-17T06:15:15.102Z,13.88
2022-11-17T06:17:49.173Z,15.23
2022-11-17T06:20:26.337Z,19.33
2022-11-17T06:22:57.611Z,19.13
2022-11-17T06:25:24.882Z,18.50
2022-11-17T06:27:53.527Z,18.90
2022-11-17T06:30:21.120Z,14.50
2022-11-17T06:32:50.106Z,14.55
2022-11-17T06:35:17.571Z,15.38
2022-11-17T06:37:45.002Z,20.88
2022-11-17T06:40:12.303Z,13.00
2022-11-17T06:42:40.028Z,13.30
2022-11-17T06:45:07.760Z,11.75
2022-11-17T06:47:35.179Z,12.98
2022-11-17T06:50:02.532Z,11.63
2022-11-17T06:52:29.882Z,13.80
2022-11-17T06:54:57.034Z,15.15
2022-11-17T06:57:24.343Z,12.13
2022-11-17T06:59:53.860Z,12.27
2022-11-17T07:02:21.397Z,10.55
2022-11-17T07:04:48.389Z,10.30
2022-11-17T07:07:18.302Z,11.55
2022-11-17T07:09:47.711Z,9.80
2022-11-17T07:12:14.986Z,10.27
2022-11-17T07:14:42.386Z,8.73
2022-11-17T07:17:09.772Z,9.65
2022-11-17T07:19:36.706Z,10.05
2022-11-17T07:22:04.477Z,12.68
2022-11-17T07:24:32.112Z,10.18
2022-11-17T07:26:59.405Z,10.18
2022-11-17T07:29:26.504Z,10.55
2022-11-17T07:31:53.935Z,10.95
2022-11-17T07:34:20.964Z,10.60
2022-11-17T07:36:48.581Z,10.48
2022-11-17T07:39:21.531Z,11.60
2022-11-17T07:41:51.939Z,13.05
2022-11-17T07:44:23.758Z,9.57
2022-11-17T07:46:51.187Z,12.73
2022-11-17T07:49:18.148Z,13.95
2022-11-17T07:51:45.520Z,14.77
2022-11-17T07:54:16.990Z,17.90
2022-11-17T07:56:44.467Z,14.43
2022-11-17T07:59:11.591Z,16.58
2022-11-17T08:01:39.361Z,11.52
2022-11-17T08:04:06.529Z,11.02
2022-11-17T08:06:34.174Z,8.73
2022-11-17T08:09:01.438Z,7.78
2022-11-17T08:11:28.793Z,13.63
2022-11-17T08:13:56.001Z,12.27
2022-11-17T08:16:23.406Z,16.98
2022-11-17T08:18:53.001Z,12.90
2022-11-17T08:21:20.539Z,11.43
2022-11-17T08:23:50.580Z,18.25
2022-11-17T08:26:21.538Z,14.38
2022-11-17T08:28:52.279Z,11.88
2022-11-17T08:31:26.620Z,11.10
2022-11-17T08:33:54.115Z,12.50
2022-11-17T08:36:23.926Z,10.85
2022-11-17T08:38:53.155Z,9.77
2022-11-17T08:41:20.605Z,12.20
2022-11-17T08:43:47.585Z,11.63
2022-11-17T08:46:17.370Z,10.90
2022-11-17T08:48:44.569Z,12.15
2022-11-17T08:51:14.414Z,10.75
2022-11-17T08:53:41.443Z,13.00
2022-11-17T08:56:11.179Z,14.60
2022-11-17T08:58:43.361Z,14.13
2022-11-17T09:01:12.621Z,14.48
2022-11-17T09:03:45.142Z,13.45
2022-11-17T09:06:15.027Z,11.53
2022-11-17T09:08:46.085Z,12.27
2022-11-17T09:11:15.120Z,12.88
2022-11-17T09:13:42.134Z,12.25
2022-11-17T09:16:11.479Z,12.13
2022-11-17T09:18:39.713Z,11.98
2022-11-17T09:21:13.933Z,12.98
2022-11-17T09:23:41.488Z,14.38
2022-11-17T09:26:15.995Z,14.55
2022-11-17T09:28:44.390Z,12.30
2022-11-17T09:31:15.066Z,13.00
2022-11-17T09:33:44.874Z,11.85
2022-11-17T09:36:14.092Z,12.80
2022-11-17T09:38:41.642Z,12.60
2022-11-17T09:41:18.723Z,14.63
2022-11-17T09:43:59.340Z,11.40
2022-11-17T09:46:32.606Z,12.90
2022-11-17T09:49:29.060Z,11.77
2022-11-17T09:52:01.909Z,11.35
2022-11-17T09:55:10.514Z,12.23
2022-11-17T09:57:44.598Z,13.70
2022-11-17T10:00:15.101Z,13.10
2022-11-17T10:02:43.161Z,11.32
2022-11-17T10:05:28.300Z,10.38
2022-11-17T10:08:01.869Z,12.13
2022-11-17T10:10:45.592Z,10.73
2022-11-17T10:13:34.030Z,12.43
2022-11-17T10:16:12.283Z,11.93
2022-11-17T10:18:40.103Z,13.48
2022-11-17T10:21:10.710Z,16.20
2022-11-17T10:23:47.300Z,11.35
2022-11-17T10:26:19.498Z,10.05
2022-11-17T10:29:08.674Z,9.30
2022-11-17T10:31:44.026Z,11.05
2022-11-17T10:34:41.439Z,9.32
2022-11-17T10:37:15.223Z,9.55
2022-11-17T10:39:43.355Z,10.48
2022-11-17T10:42:27.357Z,7.78
2022-11-17T10:47:39.736Z,10.23
2022-11-17T10:50:19.552Z,11.15
2022-11-17T10:52:48.166Z,10.98
2022-11-17T10:55:25.979Z,12.25
2022-11-17T10:58:16.467Z,12.75
2022-11-17T11:00:54.503Z,12.73
2022-11-17T11:03:29.473Z,15.68
2022-11-17T11:06:25.485Z,11.35
2022-11-17T11:09:07.019Z,11.75
2022-11-17T11:11:44.734Z,13.70
2022-11-17T11:14:18.299Z,12.00
2022-11-17T11:16:52.123Z,10.27
2022-11-17T11:22:26.970Z,12.48
2022-11-17T11:25:09.338Z,15.23
2022-11-17T11:27:55.423Z,12.85
2022-11-17T11:30:22.648Z,11.38
2022-11-17T11:32:58.857Z,13.38
2022-11-17T11:36:07.417Z,14.82
2022-11-17T11:38:42.864Z,15.55
2022-11-17T11:41:34.544Z,14.35
2022-11-17T11:44:23.284Z,12.43
2022-11-17T11:47:37.768Z,13.52
2022-11-17T11:50:24.076Z,16.08
2022-11-17T11:53:05.985Z,14.55
2022-11-17T11:55:37.261Z,14.30
2022-11-17T11:58:07.438Z,14.52
2022-11-17T12:00:35.035Z,18.10
2022-11-17T12:03:39.297Z,16.70
2022-11-17T12:06:22.647Z,15.65
2022-11-17T12:09:07.857Z,14.38
2022-11-17T12:11:40.023Z,14.98
2022-11-17T12:14:07.363Z,15.40
2022-11-17T12:16:39.935Z,16.13
2022-11-17T12:19:47.621Z,14.52
2022-11-17T12:22:20.456Z,14.00
2022-11-17T12:24:47.857Z,14.35
2022-11-17T12:27:33.675Z,13.38
2022-11-17T12:30:21.347Z,15.93
2022-11-17T12:32:48.704Z,14.05
2022-11-17T12:35:27.842Z,14.48
2022-11-17T12:38:13.859Z,19.15
2022-11-17T12:40:47.998Z,14.95
2022-11-17T12:43:15.302Z,15.45
2022-11-17T12:46:27.755Z,25.23
2022-11-17T12:49:11.427Z,20.58
2022-11-17T12:51:55.496Z,17.58
2022-11-17T12:54:26.497Z,20.35
2022-11-17T12:57:17.224Z,18.55
2022-11-17T13:00:17.776Z,21.50
2022-11-17T13:02:50.945Z,21.50
2022-11-17T13:05:23.439Z,21.13
2022-11-17T13:08:07.365Z,19.42
2022-11-17T13:10:34.795Z,19.75
2022-11-17T13:13:12.339Z,19.67
2022-11-17T13:15:48.484Z,21.27
2022-11-17T13:18:32.398Z,22.33
2022-11-17T13:21:02.408Z,23.25
2022-11-17T13:23:33.160Z,21.50
2022-11-17T13:26:29.896Z,19.70
2022-11-17T13:29:11.361Z,25.10
2022-11-17T13:31:38.932Z,24.63
2022-11-17T13:34:08.027Z,26.30
2022-11-17T13:36:35.307Z,22.88
2022-11-17T13:39:16.410Z,19.38
2022-11-17T13:41:44.523Z,19.63
2022-11-17T13:44:16.431Z,18.45
2022-11-17T13:46:48.584Z,17.10
2022-11-17T13:49:37.989Z,17.42
2022-11-17T13:52:14.020Z,18.08
2022-11-17T13:54:45.253Z,19.23
2022-11-17T13:57:25.204Z,25.13
2022-11-17T13:59:53.377Z,21.35
2022-11-17T14:02:20.617Z,23.30
2022-11-17T14:05:06.957Z,23.98
2022-11-17T14:07:39.041Z,24.98
2022-11-17T14:10:21.219Z,21.08
2022-11-17T14:13:12.836Z,21.27
2022-11-17T14:15:53.505Z,21.75
2022-11-17T14:18:26.970Z,23.35
2022-11-17T14:21:16.637Z,22.95
2022-11-17T14:23:45.027Z,23.20
2022-11-17T14:26:19.681Z,22.50
2022-11-17T14:28:48.119Z,22.67
2022-11-17T14:31:17.895Z,25.75
2022-11-17T14:33:48.220Z,27.65
2022-11-17T14:36:16.988Z,26.80
2022-11-17T14:38:47.651Z,28.10
2022-11-17T14:41:18.712Z,27.05
2022-11-17T14:43:48.464Z,26.73
2022-11-17T14:46:24.613Z,26.50
2022-11-17T14:48:54.816Z,24.52
2022-11-17T14:51:22.331Z,25.30
2022-11-17T14:53:49.892Z,25.65
2022-11-17T14:56:22.002Z,25.70
2022-11-17T14:58:54.771Z,33.08
2022-11-17T15:01:25.217Z,23.08
2022-11-17T15:03:53.184Z,25.08
2022-11-17T15:06:25.348Z,28.23
2022-11-17T15:08:58.041Z,28.65
2022-11-17T15:11:27.216Z,26.90
2022-11-17T15:13:54.855Z,26.50
2022-11-17T15:16:24.406Z,27.30
2022-11-17T15:18:51.765Z,29.40
2022-11-17T15:21:19.229Z,29.35
2022-11-17T15:23:48.768Z,30.50
2022-11-17T15:26:18.449Z,33.40
2022-11-17T15:28:48.287Z,37.70
2022-11-17T15:31:20.096Z,36.40
2022-11-17T15:33:50.535Z,39.22
2022-11-17T15:36:19.653Z,42.88
2022-11-17T15:38:47.107Z,41.47
2022-11-17T15:41:15.383Z,36.33
2022-11-17T15:43:45.302Z,41.03
2022-11-17T15:46:14.703Z,35.05
2022-11-17T15:48:50.510Z,38.60
2022-11-17T15:51:22.575Z,39.63
2022-11-17T15:53:56.197Z,38.22
2022-11-17T15:56:28.542Z,38.78
2022-11-17T15:58:59.711Z,41.63
2022-11-17T16:01:31.988Z,45.10
2022-11-17T16:04:03.528Z,38.08
2022-11-17T16:06:34.872Z,40.95
2022-11-17T16:09:05.454Z,41.30
2022-11-17T16:11:33.085Z,41.22
2022-11-17T16:14:01.059Z,36.22
2022-11-17T16:16:34.142Z,38.22
2022-11-17T16:19:02.627Z,39.78
2022-11-17T16:21:30.004Z,38.28
2022-11-17T16:24:00.230Z,39.90
2022-11-17T16:26:28.940Z,35.63
2022-11-17T16:29:01.527Z,33.90
2022-11-17T16:31:31.118Z,35.13
2022-11-17T16:34:06.939Z,36.60
2022-11-17T16:36:37.381Z,40.55
2022-11-17T16:39:09.231Z,37.08
2022-11-17T16:41:40.715Z,36.70
2022-11-17T16:44:12.976Z,36.53
2022-11-17T16:46:45.690Z,38.45
2022-11-17T16:49:15.767Z,37.13
2022-11-17T16:51:52.936Z,39.42
2022-11-17T16:54:20.806Z,40.45
2022-11-17T16:56:48.009Z,40.90
2022-11-17T16:59:15.940Z,38.50
2022-11-17T17:01:43.508Z,38.33
2022-11-17T17:04:11.760Z,38.33
2022-11-17T17:06:44.054Z,40.22
2022-11-17T17:09:15.370Z,38.30
2022-11-17T17:11:42.751Z,37.13
2022-11-17T17:14:13.152Z,44.15
2022-11-17T17:16:40.947Z,41.95
2022-11-17T17:19:10.224Z,37.22
2022-11-17T17:21:38.450Z,40.92
2022-11-17T17:24:09.518Z,38.63
2022-11-17T17:26:37.529Z,37.50
2022-11-17T17:29:08.130Z,37.70
2022-11-17T17:31:39.508Z,40.35
2022-11-17T17:34:10.697Z,35.42
2022-11-17T17:36:40.237Z,37.83
2022-11-17T17:39:07.889Z,37.20
2022-11-17T17:41:39.249Z,37.97
2022-11-17T17:44:08.773Z,35.95
2022-11-17T17:46:38.319Z,39.25
2022-11-17T17:49:07.906Z,36.63
2022-11-17T17:51:43.022Z,39.08
2022-11-17T17:54:15.630Z,43.95
2022-11-17T17:56:45.539Z,45.33
2022-11-17T17:59:16.294Z,37.65
2022-11-17T18:01:44.319Z,38.88
2022-11-17T18:04:15.786Z,35.70
2022-11-17T18:06:44.576Z,37.72
2022-11-17T18:09:12.595Z,37.13
2022-11-17T18:11:39.736Z,35.08
2022-11-17T18:14:10.184Z,32.67
2022-11-17T18:16:40.418Z,34.97
2022-11-17T18:19:14.009Z,33.15
2022-11-17T18:21:41.839Z,39.03
2022-11-17T18:24:11.688Z,31.17
2022-11-17T18:26:41.565Z,30.92
2022-11-17T18:29:14.207Z,33.28
2022-11-17T18:31:42.186Z,32.70
2022-11-17T18:34:20.485Z,29.42
2022-11-17T18:36:51.791Z,28.05
2022-11-17T18:39:19.956Z,28.63
2022-11-17T18:41:49.416Z,25.25
2022-11-17T18:44:19.367Z,28.33
2022-11-17T18:46:46.959Z,28.90
2022-11-17T18:49:14.805Z,28.15
2022-11-17T18:51:42.042Z,27.55
2022-11-17T18:54:13.187Z,28.60
2022-11-17T18:56:42.497Z,30.17
2022-11-17T18:59:09.876Z,29.85
2022-11-17T19:01:38.417Z,30.08
2022-11-17T19:04:08.250Z,28.10
2022-11-17T19:06:35.285Z,28.48
2022-11-17T19:09:02.925Z,27.13
2022-11-17T19:11:33.047Z,26.58
2022-11-17T19:14:01.646Z,29.35
2022-11-17T19:16:30.139Z,23.70
2022-11-17T19:18:58.356Z,24.13
2022-11-17T19:21:27.871Z,24.88
2022-11-17T19:23:58.387Z,25.55
2022-11-17T19:26:27.729Z,24.52
2022-11-17T19:29:01.572Z,25.20
2022-11-17T19:31:29.609Z,28.75
2022-11-17T19:34:01.680Z,25.55
2022-11-17T19:36:33.456Z,24.15
2022-11-17T19:39:04.295Z,23.77
2022-11-17T19:41:36.515Z,25.23
2022-11-17T19:44:08.728Z,28.33
2022-11-17T19:46:36.483Z,24.55
2022-11-17T19:49:05.158Z,26.10
2022-11-17T19:51:34.665Z,28.02
2022-11-17T19:54:05.964Z,26.85
2022-11-17T19:56:33.469Z,24.85
2022-11-17T19:59:00.768Z,26.27
2022-11-17T20:01:33.353Z,26.52
2022-11-17T20:04:01.955Z,29.92
2022-11-17T20:06:33.637Z,29.27
2022-11-17T20:09:05.359Z,28.80
2022-11-17T20:11:34.998Z,28.42
2022-11-17T20:14:05.028Z,30.10
2022-11-17T20:16:34.636Z,33.00
2022-11-17T20:19:02.628Z,31.88
2022-11-17T20:21:30.514Z,30.52
2022-11-17T20:23:58.463Z,33.10
2022-11-17T20:26:28.101Z,29.90
2022-11-17T20:28:56.739Z,34.63
2022-11-17T20:31:28.323Z,33.13
2022-11-17T20:33:57.474Z,31.92
2022-11-17T20:36:25.039Z,35.35
2022-11-17T20:38:54.144Z,33.38
2022-11-17T20:41:21.992Z,31.58
2022-11-17T20:43:55.341Z,32.55
2022-11-17T20:46:25.719Z,31.73
2022-11-17T20:48:53.059Z,32.20
2022-11-17T20:51:22.386Z,31.98
2022-11-17T20:53:50.201Z,28.92
2022-11-17T20:56:17.369Z,32.00
2022-11-17T20:58:45.471Z,27.80
2022-11-17T21:01:18.081Z,31.38
2022-11-17T21:03:45.515Z,30.83
2022-11-17T21:06:13.512Z,30.45
2022-11-17T21:08:42.264Z,30.15
2022-11-17T21:11:13.202Z,30.42
2022-11-17T21:13:40.448Z,32.72
2022-11-17T21:16:13.855Z,29.67
2022-11-17T21:18:48.415Z,31.67
2022-11-17T21:21:16.181Z,31.92
2022-11-17T21:23:44.243Z,31.48
2022-11-17T21:26:14.124Z,31.08
2022-11-17T21:28:41.582Z,30.65
2022-11-17T21:31:12.770Z,29.40
2022-11-17T21:33:40.630Z,32.05
2022-11-17T21:36:10.756Z,31.23
2022-11-17T21:38:38.058Z,31.05
2022-11-17T21:41:10.671Z,33.92
2022-11-17T21:43:42.537Z,29.33
2022-11-17T21:46:14.259Z,31.77
2022-11-17T21:48:46.991Z,32.83
2022-11-17T21:51:15.282Z,32.50
2022-11-17T21:53:43.230Z,32.63
2022-11-17T21:56:10.911Z,32.47
2022-11-17T21:58:40.893Z,33.72
2022-11-17T22:01:15.950Z,35.00
2022-11-17T22:03:43.609Z,31.10
2022-11-17T22:06:13.497Z,32.15
2022-11-17T22:08:42.904Z,35.45
2022-11-17T22:11:14.393Z,31.45
2022-11-17T22:13:45.121Z,34.45
2022-11-17T22:16:14.785Z,36.67
2022-11-17T22:18:42.155Z,39.78
2022-11-17T22:21:13.927Z,36.85
2022-11-17T22:23:41.506Z,36.80
2022-11-17T22:26:10.991Z,38.95
2022-11-17T22:28:40.936Z,38.60
2022-11-17T22:31:10.478Z,37.95
2022-11-17T22:33:37.860Z,33.13
2022-11-17T22:36:07.814Z,36.65
2022-11-17T22:38:37.560Z,38.83
2022-11-17T22:41:08.258Z,35.78
2022-11-17T22:43:38.660Z,39.13
2022-11-17T22:46:10.824Z,43.65
2022-11-17T22:48:38.558Z,37.90
2022-11-17T22:51:09.616Z,39.97
2022-11-17T22:53:37.120Z,40.80
2022-11-17T22:56:07.948Z,41.28
2022-11-17T22:58:35.290Z,45.25
2022-11-17T23:01:07.233Z,44.80
2022-11-17T23:03:37.219Z,46.63
2022-11-17T23:06:04.989Z,46.60
2022-11-17T23:08:35.955Z,50.00
2022-11-17T23:11:34.900Z,43.17
2022-11-17T23:13:55.535Z,45.40
2022-11-17T23:16:22.672Z,45.75
2022-11-17T23:18:53.207Z,56.50
2022-11-17T23:21:20.596Z,40.33
2022-11-17T23:23:51.150Z,41.25
2022-11-17T23:26:18.379Z,37.65
2022-11-17T23:28:47.935Z,38.88
2022-11-17T23:31:18.684Z,39.95
2022-11-17T23:33:47.280Z,43.63
2022-11-17T23:36:18.710Z,41.97
2022-11-17T23:38:47.524Z,40.63
2022-11-17T23:41:16.220Z,43.53
2022-11-17T23:43:43.544Z,41.42
2022-11-17T23:46:13.867Z,44.58
2022-11-17T23:48:41.985Z,46.17
2022-11-17T23:51:23.225Z,44.25
2022-11-17T23:53:53.533Z,43.90
2022-11-17T23:56:20.691Z,47.33
2022-11-17T23:58:48.697Z,46.88
